createdAt,value
2022-09-11T00:01:35.301Z,42.25
2022-09-11T00:04:09.523Z,42.62
2022-09-11T00:06:43.955Z,42.60
2022-09-11T00:09:17.191Z,42.77
2022-09-11T00:11:50.654Z,42.56
2022-09-11T00:14:23.895Z,42.63
2022-09-11T00:16:57.470Z,42.58
2022-09-11T00:19:31.229Z,42.92
2022-09-11T00:22:06.325Z,43.05
2022-09-11T00:24:39.861Z,43.12
2022-09-11T00:27:13.101Z,43.14
2022-09-11T00:29:48.010Z,43.03
2022-09-11T00:32:21.831Z,42.97
2022-09-11T00:34:55.741Z,43.17
2022-09-11T00:37:29.335Z,43.57
2022-09-11T00:40:02.763Z,43.68
2022-09-11T00:42:36.100Z,43.71
2022-09-11T00:45:13.376Z,43.75
2022-09-11T00:47:46.743Z,43.71
2022-09-11T00:50:22.974Z,43.62
2022-09-11T00:52:59.696Z,43.87
2022-09-11T00:55:37.425Z,43.96
2022-09-11T00:58:13.892Z,43.85
2022-09-11T01:00:48.125Z,43.92
2022-09-11T01:03:21.981Z,43.98
2022-09-11T01:05:55.614Z,44.08
2022-09-11T01:08:29.257Z,44.33
2022-09-11T01:11:06.701Z,44.25
2022-09-11T01:13:43.376Z,44.30
2022-09-11T01:16:20.031Z,44.32
2022-09-11T01:18:57.014Z,44.69
2022-09-11T01:22:02.112Z,44.41
2022-09-11T01:24:47.402Z,44.53
2022-09-11T01:30:33.862Z,42.84
2022-09-11T01:33:17.347Z,44.59
2022-09-11T01:35:57.209Z,44.75
2022-09-11T01:38:36.482Z,44.74
2022-09-11T01:41:14.671Z,44.63
2022-09-11T01:43:51.334Z,44.62
2022-09-11T01:46:27.274Z,44.64
2022-09-11T01:49:04.146Z,44.86
2022-09-11T01:51:39.154Z,44.72
2022-09-11T01:54:15.752Z,44.83
2022-09-11T01:56:51.524Z,44.81
2022-09-11T01:59:28.935Z,44.74
2022-09-11T02:02:06.893Z,45.04
2022-09-11T02:04:44.243Z,44.88
2022-09-11T02:07:20.949Z,44.90
2022-09-11T02:09:58.605Z,44.89
2022-09-11T02:12:39.969Z,45.00
2022-09-11T02:15:16.795Z,45.07
2022-09-11T02:17:54.173Z,45.14
2022-09-11T02:20:29.575Z,44.90
2022-09-11T02:23:03.216Z,45.05
2022-09-11T02:25:36.596Z,45.08
2022-09-11T02:28:10.832Z,45.15
2022-09-11T02:30:45.186Z,45.11
2022-09-11T02:33:33.005Z,45.08
2022-09-11T02:36:34.908Z,45.21
2022-09-11T02:39:17.516Z,45.13
2022-09-11T02:41:56.257Z,45.00
2022-09-11T02:44:34.135Z,45.16
2022-09-11T02:47:15.293Z,45.31
2022-09-11T02:49:54.086Z,45.26
2022-09-11T02:52:33.502Z,45.41
2022-09-11T02:55:10.615Z,45.59
2022-09-11T02:57:46.934Z,45.58
2022-09-11T03:00:20.998Z,45.43
2022-09-11T03:02:54.606Z,45.64
2022-09-11T03:05:28.821Z,45.91
2022-09-11T03:08:03.925Z,46.09
2022-09-11T03:10:38.715Z,46.21
2022-09-11T03:13:14.898Z,46.06
2022-09-11T03:15:49.794Z,46.03
2022-09-11T03:18:23.242Z,45.95
2022-09-11T03:20:57.821Z,46.10
2022-09-11T03:23:31.439Z,46.00
2022-09-11T03:26:04.469Z,46.04
2022-09-11T03:28:37.886Z,46.04
2022-09-11T03:31:14.084Z,46.13
2022-09-11T03:33:47.461Z,46.21
2022-09-11T03:36:21.233Z,46.16
2022-09-11T03:38:55.263Z,46.26
2022-09-11T03:41:28.612Z,46.22
2022-09-11T03:44:02.371Z,46.24
2022-09-11T03:46:35.573Z,46.50
2022-09-11T03:49:09.643Z,46.44
2022-09-11T03:51:43.420Z,46.74
2022-09-11T03:54:18.020Z,46.75
2022-09-11T03:56:51.404Z,46.74
2022-09-11T03:59:25.317Z,46.88
2022-09-11T04:01:59.115Z,46.97
2022-09-11T04:04:33.052Z,47.13
2022-09-11T04:07:06.987Z,47.23
2022-09-11T04:09:40.090Z,47.35
2022-09-11T04:12:13.652Z,47.45
2022-09-11T04:14:46.856Z,47.65
2022-09-11T04:17:21.930Z,47.62
2022-09-11T04:19:55.526Z,47.15
2022-09-11T04:22:28.812Z,47.15
2022-09-11T04:25:02.289Z,47.11
2022-09-11T04:27:35.947Z,46.88
2022-09-11T04:30:12.331Z,47.00
2022-09-11T04:32:46.490Z,47.71
2022-09-11T04:35:22.245Z,47.78
2022-09-11T04:37:57.164Z,47.95
2022-09-11T04:40:30.191Z,47.70
2022-09-11T04:43:03.505Z,47.80
2022-09-11T04:45:36.813Z,48.21
2022-09-11T04:48:10.532Z,48.40
2022-09-11T04:50:44.451Z,48.44
2022-09-11T04:53:19.158Z,48.57
2022-09-11T04:55:52.712Z,48.13
2022-09-11T04:58:26.026Z,47.93
2022-09-11T05:00:59.184Z,48.08
2022-09-11T05:03:32.732Z,48.19
2022-09-11T05:06:08.156Z,48.21
2022-09-11T05:08:41.526Z,48.37
2022-09-11T05:11:16.485Z,47.81
2022-09-11T05:13:50.452Z,47.75
2022-09-11T05:16:23.855Z,47.23
2022-09-11T05:18:59.466Z,47.06
2022-09-11T05:21:33.823Z,46.85
2022-09-11T05:24:08.244Z,46.62
2022-09-11T05:26:41.380Z,46.52
2022-09-11T05:29:15.955Z,46.57
2022-09-11T05:31:51.910Z,46.62
2022-09-11T05:34:25.753Z,46.73
2022-09-11T05:36:59.910Z,46.67
2022-09-11T05:39:34.997Z,46.82
2022-09-11T05:42:09.571Z,46.68
2022-09-11T05:44:44.562Z,46.92
2022-09-11T05:47:17.974Z,46.82
2022-09-11T05:49:52.970Z,46.73
2022-09-11T05:52:26.816Z,46.63
2022-09-11T05:55:00.504Z,46.55
2022-09-11T05:57:35.716Z,46.43
2022-09-11T06:00:11.196Z,46.30
2022-09-11T06:02:45.985Z,46.07
2022-09-11T06:05:19.480Z,46.17
2022-09-11T06:07:53.784Z,45.81
2022-09-11T06:10:27.551Z,45.49
2022-09-11T06:13:05.146Z,45.09
2022-09-11T06:15:51.225Z,44.88
2022-09-11T06:18:25.293Z,45.08
2022-09-11T06:21:00.077Z,44.04
2022-09-11T06:23:34.704Z,42.53
2022-09-11T06:26:10.070Z,40.51
2022-09-11T06:28:45.401Z,38.59
2022-09-11T06:31:22.214Z,36.98
2022-09-11T06:33:55.785Z,35.06
2022-09-11T06:36:30.175Z,34.14
2022-09-11T06:39:05.032Z,34.08
2022-09-11T06:41:40.032Z,33.55
2022-09-11T06:44:14.838Z,33.07
2022-09-11T06:46:48.323Z,32.40
2022-09-11T06:49:23.114Z,32.37
2022-09-11T06:52:14.457Z,32.30
2022-09-11T06:54:50.557Z,31.59
2022-09-11T06:57:24.804Z,30.56
2022-09-11T06:59:58.523Z,29.51
2022-09-11T07:02:32.202Z,29.09
2022-09-11T07:05:07.589Z,29.39
2022-09-11T07:07:41.435Z,29.05
2022-09-11T07:10:14.940Z,29.65
2022-09-11T07:12:49.763Z,29.08
2022-09-11T07:15:23.573Z,27.99
2022-09-11T07:17:56.945Z,27.44
2022-09-11T07:20:31.440Z,27.13
2022-09-11T07:23:04.876Z,27.76
2022-09-11T07:25:40.544Z,27.60
2022-09-11T07:28:14.305Z,26.56
2022-09-11T07:30:49.095Z,25.03
2022-09-11T07:33:23.164Z,24.88
2022-09-11T07:35:56.982Z,23.56
2022-09-11T07:38:31.899Z,23.36
2022-09-11T07:41:06.712Z,23.24
2022-09-11T07:43:42.335Z,22.63
2022-09-11T07:46:17.254Z,22.92
2022-09-11T07:48:51.085Z,23.17
2022-09-11T07:51:25.829Z,23.44
2022-09-11T07:54:01.420Z,23.99
2022-09-11T07:56:37.520Z,22.79
2022-09-11T07:59:12.625Z,22.33
2022-09-11T08:01:47.322Z,21.52
2022-09-11T08:04:21.526Z,21.56
2022-09-11T08:06:55.321Z,21.90
2022-09-11T08:09:30.520Z,23.14
2022-09-11T08:12:52.730Z,23.81
2022-09-11T08:15:41.887Z,24.02
2022-09-11T08:18:16.869Z,24.19
2022-09-11T08:20:50.161Z,24.23
2022-09-11T08:23:24.841Z,24.58
2022-09-11T08:26:07.611Z,24.67
2022-09-11T08:28:44.247Z,24.80
2022-09-11T08:31:20.302Z,23.96
2022-09-11T08:33:54.773Z,23.71
2022-09-11T08:36:28.708Z,23.51
2022-09-11T08:39:03.540Z,22.88
2022-09-11T08:41:46.655Z,22.25
2022-09-11T08:44:23.668Z,22.78
2022-09-11T08:47:01.558Z,22.89
2022-09-11T08:49:38.195Z,22.79
2022-09-11T08:52:15.488Z,23.42
2022-09-11T08:54:50.814Z,22.79
2022-09-11T08:57:28.134Z,21.17
2022-09-11T09:00:13.060Z,20.77
2022-09-11T09:03:14.884Z,22.50
2022-09-11T09:05:51.749Z,23.63
2022-09-11T09:08:42.021Z,24.19
2022-09-11T09:11:22.504Z,23.28
2022-09-11T09:14:06.038Z,22.81
2022-09-11T09:16:47.743Z,22.26
2022-09-11T09:19:25.806Z,23.29
2022-09-11T09:22:05.872Z,23.48
2022-09-11T09:24:45.144Z,22.95
2022-09-11T09:27:21.656Z,22.83
2022-09-11T09:29:58.442Z,22.58
2022-09-11T09:32:34.786Z,23.18
2022-09-11T09:35:13.172Z,23.21
2022-09-11T09:37:46.962Z,22.72
2022-09-11T09:40:21.754Z,22.04
2022-09-11T09:43:19.565Z,21.80
2022-09-11T09:46:05.199Z,21.82
2022-09-11T09:48:40.904Z,21.85
2022-09-11T09:51:16.379Z,22.30
2022-09-11T09:53:53.208Z,21.76
2022-09-11T09:56:27.813Z,21.97
2022-09-11T09:59:03.905Z,22.00
2022-09-11T10:01:49.710Z,21.73
2022-09-11T10:04:25.748Z,21.48
2022-09-11T10:07:11.026Z,21.14
2022-09-11T10:09:51.081Z,21.03
2022-09-11T10:12:27.145Z,21.49
2022-09-11T10:15:02.229Z,22.26
2022-09-11T10:17:37.880Z,22.61
2022-09-11T10:20:29.247Z,22.50
2022-09-11T10:23:08.636Z,23.60
2022-09-11T10:25:48.338Z,24.04
2022-09-11T10:28:25.929Z,24.03
2022-09-11T10:31:03.085Z,24.92
2022-09-11T10:33:38.607Z,25.68
2022-09-11T10:36:13.264Z,25.80
2022-09-11T10:38:50.212Z,26.13
2022-09-11T10:41:27.106Z,25.91
2022-09-11T10:44:02.491Z,26.47
2022-09-11T10:46:38.151Z,26.53
2022-09-11T10:49:19.824Z,26.72
2022-09-11T10:52:05.802Z,27.04
2022-09-11T10:54:52.648Z,27.06
2022-09-11T10:57:30.120Z,27.29
2022-09-11T11:00:11.960Z,27.29
2022-09-11T11:02:48.027Z,27.55
2022-09-11T11:05:27.229Z,27.90
2022-09-11T11:08:14.524Z,28.04
2022-09-11T11:10:56.333Z,27.58
2022-09-11T11:13:38.547Z,27.41
2022-09-11T11:16:17.984Z,27.70
2022-09-11T11:19:02.526Z,28.17
2022-09-11T11:21:43.343Z,28.31
2022-09-11T11:24:23.570Z,28.87
2022-09-11T11:27:04.896Z,28.61
2022-09-11T11:30:00.800Z,28.14
2022-09-11T11:32:46.950Z,27.75
2022-09-11T11:35:26.124Z,27.46
2022-09-11T11:38:03.370Z,27.65
2022-09-11T11:40:39.658Z,28.01
2022-09-11T11:43:16.502Z,27.81
2022-09-11T11:45:52.978Z,27.69
2022-09-11T11:48:30.359Z,27.14
2022-09-11T11:51:09.690Z,27.16
2022-09-11T11:53:45.815Z,27.75
2022-09-11T11:56:22.830Z,27.73
2022-09-11T11:59:00.819Z,27.77
2022-09-11T12:01:38.541Z,27.89
2022-09-11T12:04:14.275Z,28.06
2022-09-11T12:06:47.450Z,28.43
2022-09-11T12:09:21.466Z,28.11
2022-09-11T12:11:57.664Z,28.07
2022-09-11T12:14:33.786Z,28.52
2022-09-11T12:17:22.874Z,29.00
2022-09-11T12:20:19.080Z,29.26
2022-09-11T12:22:52.695Z,29.58
2022-09-11T12:26:00.606Z,29.80
2022-09-11T12:28:34.812Z,30.30
2022-09-11T12:31:11.505Z,30.67
2022-09-11T12:33:56.303Z,30.86
2022-09-11T12:36:37.331Z,30.63
2022-09-11T12:39:26.881Z,30.47
2022-09-11T12:42:37.278Z,30.18
2022-09-11T12:45:35.597Z,30.32
2022-09-11T12:48:13.128Z,30.50
2022-09-11T12:50:56.589Z,30.69
2022-09-11T12:53:32.572Z,30.46
2022-09-11T12:56:08.447Z,30.72
2022-09-11T12:58:44.051Z,30.93
2022-09-11T13:01:21.927Z,30.83
2022-09-11T13:03:59.918Z,30.61
2022-09-11T13:06:42.966Z,30.74
2022-09-11T13:09:23.450Z,30.81
2022-09-11T13:11:58.485Z,30.78
2022-09-11T13:14:51.819Z,30.93
2022-09-11T13:17:31.069Z,30.74
2022-09-11T13:20:23.139Z,30.83
2022-09-11T13:22:58.757Z,30.96
2022-09-11T13:25:33.223Z,30.89
2022-09-11T13:28:08.476Z,31.04
2022-09-11T13:30:51.575Z,31.32
2022-09-11T13:33:29.230Z,31.15
2022-09-11T13:36:06.073Z,31.23
2022-09-11T13:38:43.561Z,31.72
2022-09-11T13:41:19.727Z,32.05
2022-09-11T13:43:58.255Z,32.04
2022-09-11T13:46:33.912Z,32.10
2022-09-11T13:49:28.362Z,32.38
2022-09-11T13:52:03.667Z,32.40
2022-09-11T13:54:39.337Z,32.32
2022-09-11T13:57:21.550Z,32.49
2022-09-11T13:59:58.431Z,32.70
2022-09-11T14:02:51.614Z,32.55
2022-09-11T14:05:32.889Z,32.34
2022-09-11T14:08:08.994Z,32.42
2022-09-11T14:10:48.183Z,32.47
2022-09-11T14:13:27.972Z,32.39
2022-09-11T14:16:05.690Z,32.74
2022-09-11T14:18:44.142Z,32.87
2022-09-11T14:21:23.575Z,32.93
2022-09-11T14:24:10.170Z,32.84
2022-09-11T14:26:44.860Z,32.86
2022-09-11T14:29:30.940Z,33.10
2022-09-11T14:32:31.541Z,32.98
2022-09-11T14:35:07.703Z,33.13
2022-09-11T14:37:45.846Z,33.11
2022-09-11T14:40:21.232Z,33.14
2022-09-11T14:42:54.571Z,33.19
2022-09-11T14:45:28.195Z,33.36
2022-09-11T14:48:02.658Z,33.46
2022-09-11T14:50:36.007Z,33.54
2022-09-11T14:53:11.670Z,33.78
2022-09-11T14:55:44.994Z,33.93
2022-09-11T14:58:18.637Z,33.99
2022-09-11T15:00:51.702Z,34.30
2022-09-11T15:03:26.272Z,34.19
2022-09-11T15:06:00.863Z,34.25
2022-09-11T15:08:34.200Z,34.38
2022-09-11T15:11:07.960Z,34.47
2022-09-11T15:13:57.854Z,34.71
2022-09-11T15:16:16.573Z,34.59
2022-09-11T15:18:50.047Z,34.77
2022-09-11T15:21:23.179Z,34.80
2022-09-11T15:23:56.329Z,34.74
2022-09-11T15:26:29.549Z,34.80
2022-09-11T15:29:03.148Z,34.90
2022-09-11T15:31:36.721Z,35.01
2022-09-11T15:34:10.754Z,35.04
2022-09-11T15:36:44.927Z,34.99
2022-09-11T15:39:20.072Z,35.23
2022-09-11T15:41:53.537Z,35.21
2022-09-11T15:44:29.530Z,35.26
2022-09-11T15:47:03.537Z,35.32
2022-09-11T15:49:41.564Z,35.28
2022-09-11T15:52:15.485Z,35.44
2022-09-11T15:54:50.693Z,35.55
2022-09-11T15:57:25.707Z,35.65
2022-09-11T15:59:59.074Z,35.95
2022-09-11T16:02:34.009Z,36.07
2022-09-11T16:05:08.412Z,35.96
2022-09-11T16:07:41.902Z,36.04
2022-09-11T16:10:15.050Z,36.06
2022-09-11T16:12:48.405Z,36.17
2022-09-11T16:15:22.335Z,36.32
2022-09-11T16:17:55.806Z,36.37
2022-09-11T16:20:28.977Z,36.35
2022-09-11T16:23:03.860Z,36.47
2022-09-11T16:25:42.546Z,36.51
2022-09-11T16:28:22.128Z,36.64
2022-09-11T16:30:57.256Z,36.71
2022-09-11T16:33:31.565Z,37.16
2022-09-11T16:36:08.899Z,37.13
2022-09-11T16:38:43.280Z,37.23
2022-09-11T16:41:22.815Z,37.11
2022-09-11T16:43:56.403Z,37.26
2022-09-11T16:46:31.253Z,37.47
2022-09-11T16:49:06.545Z,37.39
2022-09-11T16:51:39.983Z,37.30
2022-09-11T16:54:13.541Z,37.17
2022-09-11T16:56:46.453Z,37.34
2022-09-11T16:59:22.056Z,37.96
2022-09-11T17:01:57.221Z,37.80
2022-09-11T17:04:36.221Z,37.84
2022-09-11T17:07:09.484Z,37.87
2022-09-11T17:09:43.631Z,37.80
2022-09-11T17:12:17.772Z,37.71
2022-09-11T17:14:52.830Z,37.87
2022-09-11T17:17:26.249Z,38.04
2022-09-11T17:19:59.536Z,38.17
2022-09-11T17:22:34.500Z,38.01
2022-09-11T17:25:09.228Z,38.12
2022-09-11T17:27:42.708Z,38.39
2022-09-11T17:30:17.608Z,38.42
2022-09-11T17:32:51.102Z,38.36
2022-09-11T17:35:24.330Z,38.47
2022-09-11T17:37:57.504Z,38.49
2022-09-11T17:40:36.090Z,38.64
2022-09-11T17:43:11.010Z,38.63
2022-09-11T17:45:44.448Z,38.74
2022-09-11T17:48:18.236Z,38.80
2022-09-11T17:50:53.344Z,38.80
2022-09-11T17:53:27.070Z,39.15
2022-09-11T17:56:05.394Z,39.39
2022-09-11T17:58:39.322Z,39.69
2022-09-11T18:01:16.656Z,39.50
2022-09-11T18:03:52.704Z,39.48
2022-09-11T18:06:29.304Z,39.65
2022-09-11T18:09:06.213Z,39.74
2022-09-11T18:11:39.635Z,39.53
2022-09-11T18:14:13.893Z,39.55
2022-09-11T18:16:49.515Z,39.91
2022-09-11T18:19:26.178Z,39.96
2022-09-11T18:21:59.871Z,40.00
2022-09-11T18:24:33.258Z,40.15
2022-09-11T18:27:07.054Z,40.12
2022-09-11T18:29:40.768Z,39.93
2022-09-11T18:32:14.168Z,39.88
2022-09-11T18:34:48.269Z,39.88
2022-09-11T18:37:22.192Z,39.87
2022-09-11T18:39:55.352Z,39.90
2022-09-11T18:42:28.511Z,39.94
2022-09-11T18:45:01.820Z,40.19
2022-09-11T18:47:35.440Z,40.19
2022-09-11T18:50:10.762Z,40.00
2022-09-11T18:52:46.352Z,39.95
2022-09-11T18:55:22.920Z,39.92
2022-09-11T18:57:56.311Z,40.11
2022-09-11T19:00:29.982Z,40.13
2022-09-11T19:03:03.170Z,40.27
2022-09-11T19:05:36.361Z,40.20
2022-09-11T19:08:10.417Z,40.25
2022-09-11T19:10:44.231Z,40.38
2022-09-11T19:13:17.675Z,40.60
2022-09-11T19:16:00.237Z,40.67
2022-09-11T19:18:33.560Z,40.59
2022-09-11T19:21:10.235Z,40.57
2022-09-11T19:23:45.325Z,40.67
2022-09-11T19:26:20.845Z,40.73
2022-09-11T19:28:55.924Z,40.92
2022-09-11T19:31:30.687Z,40.88
2022-09-11T19:34:04.362Z,41.02
2022-09-11T19:36:38.824Z,41.04
2022-09-11T19:39:13.103Z,41.27
2022-09-11T19:41:46.561Z,41.21
2022-09-11T19:44:21.282Z,41.17
2022-09-11T19:46:56.413Z,41.32
2022-09-11T19:49:30.233Z,41.32
2022-09-11T19:52:06.007Z,41.27
2022-09-11T19:54:39.766Z,41.25
2022-09-11T19:57:13.312Z,41.29
2022-09-11T19:59:49.385Z,41.47
2022-09-11T20:02:23.248Z,41.50
2022-09-11T20:04:56.445Z,41.65
2022-09-11T20:07:30.098Z,41.69
2022-09-11T20:10:03.804Z,41.87
2022-09-11T20:12:37.385Z,42.22
2022-09-11T20:15:13.183Z,42.67
2022-09-11T20:17:46.374Z,42.96
2022-09-11T20:20:21.057Z,43.16
2022-09-11T20:22:56.134Z,43.12
2022-09-11T20:25:29.745Z,43.23
2022-09-11T20:28:03.914Z,43.43
2022-09-11T20:30:37.223Z,43.68
2022-09-11T20:33:11.850Z,43.79
2022-09-11T20:35:46.332Z,43.73
2022-09-11T20:38:19.900Z,43.73
2022-09-11T20:40:53.557Z,44.01
2022-09-11T20:43:27.051Z,44.10
2022-09-11T20:46:00.583Z,44.15
2022-09-11T20:48:34.352Z,44.35
2022-09-11T20:51:09.520Z,44.30
2022-09-11T20:53:45.295Z,44.29
2022-09-11T20:56:22.478Z,44.33
2022-09-11T20:58:55.912Z,44.66
2022-09-11T21:01:32.476Z,44.75
2022-09-11T21:04:07.002Z,45.06
2022-09-11T21:06:40.218Z,44.90
2022-09-11T21:09:14.599Z,45.06
2022-09-11T21:11:48.774Z,45.04
2022-09-11T21:14:22.073Z,45.24
2022-09-11T21:16:56.711Z,45.52
2022-09-11T21:19:30.176Z,45.63
2022-09-11T21:22:03.368Z,45.57
2022-09-11T21:24:37.937Z,45.70
2022-09-11T21:27:11.281Z,45.54
2022-09-11T21:29:45.264Z,45.81
2022-09-11T21:32:18.846Z,45.98
2022-09-11T21:34:52.064Z,45.77
2022-09-11T21:37:25.868Z,45.67
2022-09-11T21:39:59.371Z,45.57
2022-09-11T21:42:36.341Z,45.68
2022-09-11T21:45:12.028Z,45.44
2022-09-11T21:47:45.984Z,45.63
2022-09-11T21:50:20.081Z,45.73
2022-09-11T21:52:53.310Z,45.80
2022-09-11T21:55:28.184Z,45.65
2022-09-11T21:58:02.154Z,45.54
2022-09-11T22:00:42.627Z,46.06
2022-09-11T22:03:13.619Z,46.47
2022-09-11T22:05:51.516Z,46.28
2022-09-11T22:08:23.804Z,46.14
2022-09-11T22:10:57.093Z,44.98
2022-09-11T22:13:31.060Z,46.11
2022-09-11T22:16:07.142Z,46.00
2022-09-11T22:18:41.807Z,46.38
2022-09-11T22:21:15.624Z,46.34
2022-09-11T22:23:49.780Z,46.45
2022-09-11T22:26:24.379Z,46.25
2022-09-11T22:28:58.669Z,46.51
2022-09-11T22:31:32.618Z,45.96
2022-09-11T22:34:06.433Z,45.97
2022-09-11T22:36:40.052Z,46.60
2022-09-11T22:39:13.304Z,46.76
2022-09-11T22:41:46.624Z,47.00
2022-09-11T22:44:21.005Z,47.23
2022-09-11T22:46:54.315Z,47.35
2022-09-11T22:49:28.282Z,47.36
2022-09-11T22:52:01.504Z,46.92
2022-09-11T22:54:35.647Z,46.74
2022-09-11T22:57:09.235Z,46.47
2022-09-11T22:59:42.861Z,46.32
2022-09-11T23:02:16.643Z,46.23
2022-09-11T23:05:08.964Z,46.29
2022-09-11T23:07:42.400Z,46.46
2022-09-11T23:10:15.721Z,46.14
2022-09-11T23:12:48.948Z,46.50
2022-09-11T23:15:23.039Z,46.63
2022-09-11T23:17:56.404Z,46.82
2022-09-11T23:20:31.642Z,46.85
2022-09-11T23:23:05.904Z,46.85
2022-09-11T23:25:42.282Z,46.46
2022-09-11T23:28:16.023Z,46.50
2022-09-11T23:30:49.298Z,46.43
2022-09-11T23:33:22.881Z,46.12
2022-09-11T23:35:56.772Z,45.92
2022-09-11T23:38:29.949Z,45.78
2022-09-11T23:41:03.856Z,45.62
2022-09-11T23:43:37.707Z,45.52
2022-09-11T23:46:11.759Z,45.56
2022-09-11T23:48:45.531Z,45.54
2022-09-11T23:51:19.466Z,45.50
2022-09-11T23:53:53.155Z,45.73
2022-09-11T23:56:27.293Z,46.05
2022-09-11T23:59:00.664Z,46.12
